sensor_id;sensor_type;location;lat;lon;timestamp;temperature;humidity
36002;DHT22;22070;50.922;5.430;2023-06-10T00:00:22;24.00;99.90
36002;DHT22;22070;50.922;5.430;2023-06-10T00:02:48;24.10;99.90
36002;DHT22;22070;50.922;5.430;2023-06-10T00:05:13;24.00;99.90
36002;DHT22;22070;50.922;5.430;2023-06-10T00:07:41;23.90;99.90
36002;DHT22;22070;50.922;5.430;2023-06-10T00:10:07;23.90;99.90
36002;DHT22;22070;50.922;5.430;2023-06-10T00:12:34;24.00;99.90
36002;DHT22;22070;50.922;5.430;2023-06-10T00:15:04;24.00;99.90
36002;DHT22;22070;50.922;5.430;2023-06-10T00:17:30;24.00;99.90
36002;DHT22;22070;50.922;5.430;2023-06-10T00:19:56;24.00;99.90
36002;DHT22;22070;50.922;5.430;2023-06-10T00:22:23;23.90;99.90
36002;DHT22;22070;50.922;5.430;2023-06-10T00:24:49;23.80;99.90
36002;DHT22;22070;50.922;5.430;2023-06-10T00:27:16;23.70;99.90
36002;DHT22;22070;50.922;5.430;2023-06-10T00:29:42;23.70;99.90
36002;DHT22;22070;50.922;5.430;2023-06-10T00:32:08;23.80;99.90
36002;DHT22;22070;50.922;5.430;2023-06-10T00:34:33;23.80;99.90
36002;DHT22;22070;50.922;5.430;2023-06-10T00:36:59;23.70;99.90
36002;DHT22;22070;50.922;5.430;2023-06-10T00:39:25;23.70;99.90
36002;DHT22;22070;50.922;5.430;2023-06-10T00:41:50;23.60;99.90
36002;DHT22;22070;50.922;5.430;2023-06-10T00:44:16;23.50;99.90
36002;DHT22;22070;50.922;5.430;2023-06-10T00:46:42;23.60;99.90
36002;DHT22;22070;50.922;5.430;2023-06-10T00:49:08;23.60;99.90
36002;DHT22;22070;50.922;5.430;2023-06-10T00:51:34;23.60;99.90
36002;DHT22;22070;50.922;5.430;2023-06-10T00:54:00;23.60;99.90
36002;DHT22;22070;50.922;5.430;2023-06-10T00:56:26;23.50;99.90
36002;DHT22;22070;50.922;5.430;2023-06-10T00:58:53;23.50;99.90
36002;DHT22;22070;50.922;5.430;2023-06-10T01:01:19;23.40;99.90
36002;DHT22;22070;50.922;5.430;2023-06-10T01:03:45;23.40;99.90
36002;DHT22;22070;50.922;5.430;2023-06-10T01:06:24;23.50;99.90
36002;DHT22;22070;50.922;5.430;2023-06-10T01:11:33;23.30;99.90
36002;DHT22;22070;50.922;5.430;2023-06-10T01:14:00;23.30;99.90
36002;DHT22;22070;50.922;5.430;2023-06-10T01:16:26;23.30;99.90
36002;DHT22;22070;50.922;5.430;2023-06-10T01:18:53;23.30;99.90
36002;DHT22;22070;50.922;5.430;2023-06-10T01:21:21;23.30;99.90
36002;DHT22;22070;50.922;5.430;2023-06-10T01:23:50;23.20;99.90
36002;DHT22;22070;50.922;5.430;2023-06-10T01:26:16;23.10;99.90
36002;DHT22;22070;50.922;5.430;2023-06-10T01:31:34;23.10;99.90
36002;DHT22;22070;50.922;5.430;2023-06-10T01:34:05;22.90;99.90
36002;DHT22;22070;50.922;5.430;2023-06-10T01:36:33;22.80;99.90
36002;DHT22;22070;50.922;5.430;2023-06-10T01:39:00;22.90;99.90
36002;DHT22;22070;50.922;5.430;2023-06-10T01:41:29;22.80;99.90
36002;DHT22;22070;50.922;5.430;2023-06-10T01:43:55;22.70;99.90
36002;DHT22;22070;50.922;5.430;2023-06-10T01:46:20;22.80;99.90
36002;DHT22;22070;50.922;5.430;2023-06-10T01:48:47;22.70;99.90
36002;DHT22;22070;50.922;5.430;2023-06-10T01:51:13;22.80;99.90
36002;DHT22;22070;50.922;5.430;2023-06-10T01:53:39;22.70;99.90
36002;DHT22;22070;50.922;5.430;2023-06-10T01:56:05;22.60;99.90
36002;DHT22;22070;50.922;5.430;2023-06-10T01:58:31;22.60;99.90
36002;DHT22;22070;50.922;5.430;2023-06-10T02:00:56;22.40;99.90
36002;DHT22;22070;50.922;5.430;2023-06-10T02:03:22;22.40;99.90
36002;DHT22;22070;50.922;5.430;2023-06-10T02:05:48;22.30;99.90
36002;DHT22;22070;50.922;5.430;2023-06-10T02:08:14;22.30;99.90
36002;DHT22;22070;50.922;5.430;2023-06-10T02:10:40;22.10;99.90
36002;DHT22;22070;50.922;5.430;2023-06-10T02:13:06;21.90;99.90
36002;DHT22;22070;50.922;5.430;2023-06-10T02:15:31;21.90;99.90
36002;DHT22;22070;50.922;5.430;2023-06-10T02:17:57;21.80;99.90
36002;DHT22;22070;50.922;5.430;2023-06-10T02:20:23;21.70;99.90
36002;DHT22;22070;50.922;5.430;2023-06-10T02:22:49;21.80;99.90
36002;DHT22;22070;50.922;5.430;2023-06-10T02:25:14;21.70;99.90
36002;DHT22;22070;50.922;5.430;2023-06-10T02:27:40;21.80;99.90
36002;DHT22;22070;50.922;5.430;2023-06-10T02:30:06;21.50;99.90
36002;DHT22;22070;50.922;5.430;2023-06-10T02:32:35;21.50;99.90
36002;DHT22;22070;50.922;5.430;2023-06-10T02:35:00;21.40;99.90
36002;DHT22;22070;50.922;5.430;2023-06-10T02:37:26;21.30;99.90
36002;DHT22;22070;50.922;5.430;2023-06-10T02:39:52;21.30;99.90
36002;DHT22;22070;50.922;5.430;2023-06-10T02:42:18;21.30;99.90
36002;DHT22;22070;50.922;5.430;2023-06-10T02:44:43;21.20;99.90
36002;DHT22;22070;50.922;5.430;2023-06-10T02:47:09;21.00;99.90
36002;DHT22;22070;50.922;5.430;2023-06-10T02:49:35;20.90;99.90
36002;DHT22;22070;50.922;5.430;2023-06-10T02:52:01;20.90;99.90
36002;DHT22;22070;50.922;5.430;2023-06-10T02:54:26;20.90;99.90
36002;DHT22;22070;50.922;5.430;2023-06-10T02:56:52;20.80;99.90
36002;DHT22;22070;50.922;5.430;2023-06-10T02:59:18;20.80;99.90
36002;DHT22;22070;50.922;5.430;2023-06-10T03:01:44;20.70;99.90
36002;DHT22;22070;50.922;5.430;2023-06-10T03:04:10;20.70;99.90
36002;DHT22;22070;50.922;5.430;2023-06-10T03:06:39;20.70;99.90
36002;DHT22;22070;50.922;5.430;2023-06-10T03:09:06;20.60;99.90
36002;DHT22;22070;50.922;5.430;2023-06-10T03:11:35;20.60;99.90
36002;DHT22;22070;50.922;5.430;2023-06-10T03:14:01;20.60;99.90
36002;DHT22;22070;50.922;5.430;2023-06-10T03:16:26;20.60;99.90
36002;DHT22;22070;50.922;5.430;2023-06-10T03:18:53;20.40;99.90
36002;DHT22;22070;50.922;5.430;2023-06-10T03:21:18;20.50;99.90
36002;DHT22;22070;50.922;5.430;2023-06-10T03:23:45;20.50;99.90
36002;DHT22;22070;50.922;5.430;2023-06-10T03:26:11;20.40;99.90
36002;DHT22;22070;50.922;5.430;2023-06-10T03:28:38;20.50;99.90
36002;DHT22;22070;50.922;5.430;2023-06-10T03:31:03;20.60;99.90
36002;DHT22;22070;50.922;5.430;2023-06-10T03:33:29;20.60;99.90
36002;DHT22;22070;50.922;5.430;2023-06-10T03:35:55;20.70;99.90
36002;DHT22;22070;50.922;5.430;2023-06-10T03:38:21;20.70;99.90
36002;DHT22;22070;50.922;5.430;2023-06-10T03:40:47;20.80;99.90
36002;DHT22;22070;50.922;5.430;2023-06-10T03:43:13;20.80;99.90
36002;DHT22;22070;50.922;5.430;2023-06-10T03:45:38;20.80;99.90
36002;DHT22;22070;50.922;5.430;2023-06-10T03:48:04;20.80;99.90
36002;DHT22;22070;50.922;5.430;2023-06-10T03:50:31;20.90;99.90
36002;DHT22;22070;50.922;5.430;2023-06-10T03:52:58;20.90;99.90
36002;DHT22;22070;50.922;5.430;2023-06-10T03:55:24;20.90;99.90
36002;DHT22;22070;50.922;5.430;2023-06-10T03:57:50;20.90;99.90
36002;DHT22;22070;50.922;5.430;2023-06-10T04:00:16;20.90;99.90
36002;DHT22;22070;50.922;5.430;2023-06-10T04:02:43;20.90;99.90
36002;DHT22;22070;50.922;5.430;2023-06-10T04:05:15;21.00;99.90
36002;DHT22;22070;50.922;5.430;2023-06-10T04:07:42;21.00;99.90
36002;DHT22;22070;50.922;5.430;2023-06-10T04:10:08;20.90;99.90
36002;DHT22;22070;50.922;5.430;2023-06-10T04:12:35;21.00;99.90
36002;DHT22;22070;50.922;5.430;2023-06-10T04:15:02;21.00;99.90
36002;DHT22;22070;50.922;5.430;2023-06-10T04:17:28;21.00;99.90
36002;DHT22;22070;50.922;5.430;2023-06-10T04:19:53;20.90;99.90
36002;DHT22;22070;50.922;5.430;2023-06-10T04:22:20;20.90;99.90
36002;DHT22;22070;50.922;5.430;2023-06-10T04:24:46;20.90;99.90
36002;DHT22;22070;50.922;5.430;2023-06-10T04:27:11;20.90;99.90
36002;DHT22;22070;50.922;5.430;2023-06-10T04:29:37;20.80;99.90
36002;DHT22;22070;50.922;5.430;2023-06-10T04:32:03;20.90;99.90
36002;DHT22;22070;50.922;5.430;2023-06-10T04:34:31;20.90;99.90
36002;DHT22;22070;50.922;5.430;2023-06-10T04:36:56;21.00;99.90
36002;DHT22;22070;50.922;5.430;2023-06-10T04:39:22;21.00;99.90
36002;DHT22;22070;50.922;5.430;2023-06-10T04:41:48;21.10;99.90
36002;DHT22;22070;50.922;5.430;2023-06-10T04:44:14;21.10;99.90
36002;DHT22;22070;50.922;5.430;2023-06-10T04:46:39;21.10;99.90
36002;DHT22;22070;50.922;5.430;2023-06-10T04:49:05;21.10;99.90
36002;DHT22;22070;50.922;5.430;2023-06-10T04:51:31;21.20;99.90
36002;DHT22;22070;50.922;5.430;2023-06-10T04:54:00;21.20;99.90
36002;DHT22;22070;50.922;5.430;2023-06-10T04:56:29;21.20;99.90
36002;DHT22;22070;50.922;5.430;2023-06-10T04:58:56;21.30;99.90
36002;DHT22;22070;50.922;5.430;2023-06-10T05:01:22;21.20;99.90
36002;DHT22;22070;50.922;5.430;2023-06-10T05:03:47;21.30;99.90
36002;DHT22;22070;50.922;5.430;2023-06-10T05:06:13;21.40;99.90
36002;DHT22;22070;50.922;5.430;2023-06-10T05:08:39;21.50;99.90
36002;DHT22;22070;50.922;5.430;2023-06-10T05:11:04;21.60;99.90
36002;DHT22;22070;50.922;5.430;2023-06-10T05:13:30;21.70;99.90
36002;DHT22;22070;50.922;5.430;2023-06-10T05:15:56;21.60;99.90
36002;DHT22;22070;50.922;5.430;2023-06-10T05:18:21;21.70;99.90
36002;DHT22;22070;50.922;5.430;2023-06-10T05:20:47;21.80;99.90
36002;DHT22;22070;50.922;5.430;2023-06-10T05:23:13;21.70;99.90
36002;DHT22;22070;50.922;5.430;2023-06-10T05:25:38;21.70;99.90
36002;DHT22;22070;50.922;5.430;2023-06-10T05:28:04;21.90;99.90
36002;DHT22;22070;50.922;5.430;2023-06-10T05:30:30;22.00;99.90
36002;DHT22;22070;50.922;5.430;2023-06-10T05:32:55;21.90;99.90
36002;DHT22;22070;50.922;5.430;2023-06-10T05:35:21;22.00;99.90
36002;DHT22;22070;50.922;5.430;2023-06-10T05:37:48;22.10;99.90
36002;DHT22;22070;50.922;5.430;2023-06-10T05:40:14;22.10;99.90
36002;DHT22;22070;50.922;5.430;2023-06-10T05:42:39;22.20;99.90
36002;DHT22;22070;50.922;5.430;2023-06-10T05:45:06;22.30;99.90
36002;DHT22;22070;50.922;5.430;2023-06-10T05:47:32;22.20;99.90
36002;DHT22;22070;50.922;5.430;2023-06-10T05:49:57;22.20;99.90
36002;DHT22;22070;50.922;5.430;2023-06-10T05:52:23;22.30;99.90
36002;DHT22;22070;50.922;5.430;2023-06-10T05:54:50;22.40;99.90
36002;DHT22;22070;50.922;5.430;2023-06-10T05:57:15;22.40;99.90
36002;DHT22;22070;50.922;5.430;2023-06-10T05:59:41;22.30;99.90
36002;DHT22;22070;50.922;5.430;2023-06-10T06:02:07;22.30;99.90
36002;DHT22;22070;50.922;5.430;2023-06-10T06:04:33;22.40;99.90
36002;DHT22;22070;50.922;5.430;2023-06-10T06:06:59;22.50;99.90
36002;DHT22;22070;50.922;5.430;2023-06-10T06:09:24;22.50;99.90
36002;DHT22;22070;50.922;5.430;2023-06-10T06:11:50;22.50;99.90
36002;DHT22;22070;50.922;5.430;2023-06-10T06:14:16;22.70;99.90
36002;DHT22;22070;50.922;5.430;2023-06-10T06:16:41;22.60;99.90
36002;DHT22;22070;50.922;5.430;2023-06-10T06:19:08;22.70;99.90
36002;DHT22;22070;50.922;5.430;2023-06-10T06:21:34;22.60;99.90
36002;DHT22;22070;50.922;5.430;2023-06-10T06:24:00;22.70;99.90
36002;DHT22;22070;50.922;5.430;2023-06-10T06:26:26;22.80;99.90
36002;DHT22;22070;50.922;5.430;2023-06-10T06:28:52;22.90;99.90
36002;DHT22;22070;50.922;5.430;2023-06-10T06:31:18;23.00;99.90
36002;DHT22;22070;50.922;5.430;2023-06-10T06:33:43;23.10;99.90
36002;DHT22;22070;50.922;5.430;2023-06-10T06:36:09;23.20;99.90
36002;DHT22;22070;50.922;5.430;2023-06-10T06:38:35;23.30;99.90
36002;DHT22;22070;50.922;5.430;2023-06-10T06:41:00;23.20;99.90
36002;DHT22;22070;50.922;5.430;2023-06-10T06:43:31;23.30;99.90
36002;DHT22;22070;50.922;5.430;2023-06-10T06:45:57;23.30;99.90
36002;DHT22;22070;50.922;5.430;2023-06-10T06:48:24;23.40;99.90
36002;DHT22;22070;50.922;5.430;2023-06-10T06:50:49;23.50;99.90
36002;DHT22;22070;50.922;5.430;2023-06-10T06:53:15;23.60;99.90
36002;DHT22;22070;50.922;5.430;2023-06-10T06:55:41;23.70;99.90
36002;DHT22;22070;50.922;5.430;2023-06-10T06:58:06;23.80;99.90
36002;DHT22;22070;50.922;5.430;2023-06-10T07:00:32;23.70;99.90
36002;DHT22;22070;50.922;5.430;2023-06-10T07:02:58;23.80;99.90
36002;DHT22;22070;50.922;5.430;2023-06-10T07:05:24;23.90;99.90
36002;DHT22;22070;50.922;5.430;2023-06-10T07:07:53;23.90;99.90
36002;DHT22;22070;50.922;5.430;2023-06-10T07:10:22;24.00;99.90
36002;DHT22;22070;50.922;5.430;2023-06-10T07:12:48;24.10;99.90
36002;DHT22;22070;50.922;5.430;2023-06-10T07:15:14;24.20;99.90
36002;DHT22;22070;50.922;5.430;2023-06-10T07:17:40;24.30;99.90
36002;DHT22;22070;50.922;5.430;2023-06-10T07:20:06;24.40;99.90
36002;DHT22;22070;50.922;5.430;2023-06-10T07:22:31;24.40;99.90
36002;DHT22;22070;50.922;5.430;2023-06-10T07:24:57;24.50;99.90
36002;DHT22;22070;50.922;5.430;2023-06-10T07:27:23;24.50;99.90
36002;DHT22;22070;50.922;5.430;2023-06-10T07:29:50;24.70;99.90
36002;DHT22;22070;50.922;5.430;2023-06-10T07:32:16;24.70;99.90
36002;DHT22;22070;50.922;5.430;2023-06-10T07:34:42;24.70;99.90
36002;DHT22;22070;50.922;5.430;2023-06-10T07:37:07;24.90;99.90
36002;DHT22;22070;50.922;5.430;2023-06-10T07:39:34;25.00;99.90
36002;DHT22;22070;50.922;5.430;2023-06-10T07:42:00;25.10;99.90
36002;DHT22;22070;50.922;5.430;2023-06-10T07:44:26;25.10;99.90
36002;DHT22;22070;50.922;5.430;2023-06-10T07:46:51;25.30;99.90
36002;DHT22;22070;50.922;5.430;2023-06-10T07:49:17;25.30;99.90
36002;DHT22;22070;50.922;5.430;2023-06-10T07:51:43;25.30;99.90
36002;DHT22;22070;50.922;5.430;2023-06-10T07:54:08;25.50;99.90
36002;DHT22;22070;50.922;5.430;2023-06-10T07:56:34;25.60;99.90
36002;DHT22;22070;50.922;5.430;2023-06-10T07:59:00;25.70;99.90
36002;DHT22;22070;50.922;5.430;2023-06-10T08:01:26;25.60;99.90
36002;DHT22;22070;50.922;5.430;2023-06-10T08:03:51;25.60;99.90
36002;DHT22;22070;50.922;5.430;2023-06-10T08:06:17;25.60;99.90
36002;DHT22;22070;50.922;5.430;2023-06-10T08:08:43;25.60;99.90
36002;DHT22;22070;50.922;5.430;2023-06-10T08:11:11;25.70;99.90
36002;DHT22;22070;50.922;5.430;2023-06-10T08:13:36;25.80;99.90
36002;DHT22;22070;50.922;5.430;2023-06-10T08:16:02;25.90;99.90
36002;DHT22;22070;50.922;5.430;2023-06-10T08:18:28;26.00;99.90
36002;DHT22;22070;50.922;5.430;2023-06-10T08:20:54;26.00;99.90
36002;DHT22;22070;50.922;5.430;2023-06-10T08:23:20;26.00;99.90
36002;DHT22;22070;50.922;5.430;2023-06-10T08:25:46;26.20;99.90
36002;DHT22;22070;50.922;5.430;2023-06-10T08:28:12;26.20;99.90
36002;DHT22;22070;50.922;5.430;2023-06-10T08:30:37;26.10;99.90
36002;DHT22;22070;50.922;5.430;2023-06-10T08:33:03;26.00;99.90
36002;DHT22;22070;50.922;5.430;2023-06-10T08:35:29;26.10;99.90
36002;DHT22;22070;50.922;5.430;2023-06-10T08:37:55;26.20;99.90
36002;DHT22;22070;50.922;5.430;2023-06-10T08:40:21;26.30;99.90
36002;DHT22;22070;50.922;5.430;2023-06-10T08:43:39;26.30;99.90
36002;DHT22;22070;50.922;5.430;2023-06-10T08:45:38;26.40;99.90
36002;DHT22;22070;50.922;5.430;2023-06-10T08:48:04;26.40;99.90
36002;DHT22;22070;50.922;5.430;2023-06-10T08:50:37;26.40;99.90
36002;DHT22;22070;50.922;5.430;2023-06-10T08:53:07;26.40;99.90
36002;DHT22;22070;50.922;5.430;2023-06-10T08:55:37;26.50;99.90
36002;DHT22;22070;50.922;5.430;2023-06-10T08:58:03;26.60;99.90
36002;DHT22;22070;50.922;5.430;2023-06-10T09:00:30;26.60;99.90
36002;DHT22;22070;50.922;5.430;2023-06-10T09:02:57;26.60;99.90
36002;DHT22;22070;50.922;5.430;2023-06-10T09:05:23;26.60;99.90
36002;DHT22;22070;50.922;5.430;2023-06-10T09:07:49;26.70;99.90
36002;DHT22;22070;50.922;5.430;2023-06-10T09:10:16;26.70;99.90
36002;DHT22;22070;50.922;5.430;2023-06-10T09:12:42;26.80;99.90
36002;DHT22;22070;50.922;5.430;2023-06-10T09:15:08;26.80;99.90
36002;DHT22;22070;50.922;5.430;2023-06-10T09:17:34;26.90;99.90
36002;DHT22;22070;50.922;5.430;2023-06-10T09:20:02;27.00;99.90
36002;DHT22;22070;50.922;5.430;2023-06-10T09:22:28;27.10;99.90
36002;DHT22;22070;50.922;5.430;2023-06-10T09:25:10;27.20;99.90
36002;DHT22;22070;50.922;5.430;2023-06-10T09:27:50;27.30;99.90
36002;DHT22;22070;50.922;5.430;2023-06-10T09:30:42;27.30;99.90
36002;DHT22;22070;50.922;5.430;2023-06-10T09:33:13;27.40;99.90
36002;DHT22;22070;50.922;5.430;2023-06-10T09:35:48;27.50;99.90
36002;DHT22;22070;50.922;5.430;2023-06-10T09:38:19;27.50;99.90
36002;DHT22;22070;50.922;5.430;2023-06-10T09:40:50;27.70;99.90
36002;DHT22;22070;50.922;5.430;2023-06-10T09:43:16;27.70;99.90
36002;DHT22;22070;50.922;5.430;2023-06-10T09:45:42;27.70;99.90
36002;DHT22;22070;50.922;5.430;2023-06-10T09:48:08;27.80;99.90
36002;DHT22;22070;50.922;5.430;2023-06-10T09:50:34;27.80;99.90
36002;DHT22;22070;50.922;5.430;2023-06-10T09:53:03;27.80;99.90
36002;DHT22;22070;50.922;5.430;2023-06-10T09:55:33;27.80;99.90
36002;DHT22;22070;50.922;5.430;2023-06-10T09:57:59;27.90;99.90
36002;DHT22;22070;50.922;5.430;2023-06-10T10:00:25;28.00;99.90
36002;DHT22;22070;50.922;5.430;2023-06-10T10:02:52;28.10;99.90
36002;DHT22;22070;50.922;5.430;2023-06-10T10:05:20;28.00;99.90
36002;DHT22;22070;50.922;5.430;2023-06-10T10:07:47;28.10;99.90
36002;DHT22;22070;50.922;5.430;2023-06-10T10:10:14;28.20;99.90
36002;DHT22;22070;50.922;5.430;2023-06-10T10:12:41;28.20;99.90
36002;DHT22;22070;50.922;5.430;2023-06-10T10:15:09;28.30;99.90
36002;DHT22;22070;50.922;5.430;2023-06-10T10:17:41;28.30;99.90
36002;DHT22;22070;50.922;5.430;2023-06-10T10:20:08;28.40;99.90
36002;DHT22;22070;50.922;5.430;2023-06-10T10:22:38;28.30;99.90
36002;DHT22;22070;50.922;5.430;2023-06-10T10:25:16;28.40;99.90
36002;DHT22;22070;50.922;5.430;2023-06-10T10:27:49;28.40;99.90
36002;DHT22;22070;50.922;5.430;2023-06-10T10:30:18;28.50;99.90
36002;DHT22;22070;50.922;5.430;2023-06-10T10:32:50;28.50;99.90
36002;DHT22;22070;50.922;5.430;2023-06-10T10:35:20;28.50;99.90
36002;DHT22;22070;50.922;5.430;2023-06-10T10:37:49;28.60;99.90
36002;DHT22;22070;50.922;5.430;2023-06-10T10:40:16;28.70;99.90
36002;DHT22;22070;50.922;5.430;2023-06-10T10:42:42;28.80;99.90
36002;DHT22;22070;50.922;5.430;2023-06-10T10:45:09;28.80;99.90
36002;DHT22;22070;50.922;5.430;2023-06-10T10:47:36;28.80;99.90
36002;DHT22;22070;50.922;5.430;2023-06-10T10:50:16;28.80;99.90
36002;DHT22;22070;50.922;5.430;2023-06-10T10:55:19;28.80;99.90
36002;DHT22;22070;50.922;5.430;2023-06-10T10:57:44;29.00;99.10
36002;DHT22;22070;50.922;5.430;2023-06-10T11:00:28;29.00;99.70
36002;DHT22;22070;50.922;5.430;2023-06-10T11:05:39;29.30;99.90
36002;DHT22;22070;50.922;5.430;2023-06-10T11:08:05;29.30;99.90
36002;DHT22;22070;50.922;5.430;2023-06-10T11:10:39;29.40;99.90
36002;DHT22;22070;50.922;5.430;2023-06-10T11:13:09;29.50;99.90
36002;DHT22;22070;50.922;5.430;2023-06-10T11:15:39;29.60;99.90
36002;DHT22;22070;50.922;5.430;2023-06-10T11:31:30;29.70;98.40
36002;DHT22;22070;50.922;5.430;2023-06-10T11:33:58;29.90;97.20
36002;DHT22;22070;50.922;5.430;2023-06-10T11:36:28;29.90;97.40
36002;DHT22;22070;50.922;5.430;2023-06-10T11:39:02;30.10;98.50
36002;DHT22;22070;50.922;5.430;2023-06-10T11:41:29;30.10;96.80
36002;DHT22;22070;50.922;5.430;2023-06-10T11:43:57;30.00;97.00
36002;DHT22;22070;50.922;5.430;2023-06-10T11:46:26;29.90;95.70
36002;DHT22;22070;50.922;5.430;2023-06-10T11:48:58;29.90;95.00
36002;DHT22;22070;50.922;5.430;2023-06-10T11:51:29;30.10;96.00
36002;DHT22;22070;50.922;5.430;2023-06-10T11:53:55;30.20;95.80
36002;DHT22;22070;50.922;5.430;2023-06-10T11:58:56;30.40;95.20
36002;DHT22;22070;50.922;5.430;2023-06-10T12:01:23;30.50;95.40
36002;DHT22;22070;50.922;5.430;2023-06-10T12:04:06;30.50;94.30
36002;DHT22;22070;50.922;5.430;2023-06-10T12:09:06;30.80;94.60
36002;DHT22;22070;50.922;5.430;2023-06-10T12:11:32;30.80;94.90
36002;DHT22;22070;50.922;5.430;2023-06-10T12:13:58;30.90;94.10
36002;DHT22;22070;50.922;5.430;2023-06-10T12:16:23;30.90;93.80
36002;DHT22;22070;50.922;5.430;2023-06-10T12:18:49;30.90;94.40
36002;DHT22;22070;50.922;5.430;2023-06-10T12:21:24;30.90;94.00
36002;DHT22;22070;50.922;5.430;2023-06-10T12:24:06;31.00;95.20
36002;DHT22;22070;50.922;5.430;2023-06-10T12:26:42;31.00;93.90
36002;DHT22;22070;50.922;5.430;2023-06-10T12:29:20;31.00;93.60
36002;DHT22;22070;50.922;5.430;2023-06-10T12:32:01;31.00;93.70
36002;DHT22;22070;50.922;5.430;2023-06-10T12:34:29;31.10;94.10
36002;DHT22;22070;50.922;5.430;2023-06-10T12:36:55;31.20;94.30
36002;DHT22;22070;50.922;5.430;2023-06-10T12:39:21;31.00;93.30
36002;DHT22;22070;50.922;5.430;2023-06-10T12:41:48;31.00;93.30
36002;DHT22;22070;50.922;5.430;2023-06-10T12:44:15;31.20;93.80
36002;DHT22;22070;50.922;5.430;2023-06-10T12:46:40;31.40;93.80
36002;DHT22;22070;50.922;5.430;2023-06-10T12:49:06;31.60;93.50
36002;DHT22;22070;50.922;5.430;2023-06-10T12:51:32;31.80;93.40
36002;DHT22;22070;50.922;5.430;2023-06-10T12:53:59;31.80;93.20
36002;DHT22;22070;50.922;5.430;2023-06-10T12:56:25;31.70;93.30
36002;DHT22;22070;50.922;5.430;2023-06-10T12:58:51;31.50;92.90
36002;DHT22;22070;50.922;5.430;2023-06-10T13:01:17;31.60;92.90
36002;DHT22;22070;50.922;5.430;2023-06-10T13:03:42;31.80;93.00
36002;DHT22;22070;50.922;5.430;2023-06-10T13:06:08;31.80;93.00
36002;DHT22;22070;50.922;5.430;2023-06-10T13:08:33;31.70;92.10
36002;DHT22;22070;50.922;5.430;2023-06-10T13:10:59;31.90;91.30
36002;DHT22;22070;50.922;5.430;2023-06-10T13:13:26;31.80;92.50
36002;DHT22;22070;50.922;5.430;2023-06-10T13:15:51;31.90;92.50
36002;DHT22;22070;50.922;5.430;2023-06-10T13:18:17;32.10;92.00
36002;DHT22;22070;50.922;5.430;2023-06-10T13:20:46;32.20;91.70
36002;DHT22;22070;50.922;5.430;2023-06-10T13:23:11;32.40;92.70
36002;DHT22;22070;50.922;5.430;2023-06-10T13:25:37;32.60;91.90
36002;DHT22;22070;50.922;5.430;2023-06-10T13:28:03;32.70;92.00
36002;DHT22;22070;50.922;5.430;2023-06-10T13:30:28;32.70;91.50
36002;DHT22;22070;50.922;5.430;2023-06-10T13:32:54;32.90;91.20
36002;DHT22;22070;50.922;5.430;2023-06-10T13:35:20;33.00;92.20
36002;DHT22;22070;50.922;5.430;2023-06-10T13:37:45;33.00;91.20
36002;DHT22;22070;50.922;5.430;2023-06-10T13:40:11;32.90;91.40
36002;DHT22;22070;50.922;5.430;2023-06-10T13:42:37;32.90;91.10
36002;DHT22;22070;50.922;5.430;2023-06-10T13:45:04;32.90;91.50
36002;DHT22;22070;50.922;5.430;2023-06-10T13:47:30;33.10;92.10
36002;DHT22;22070;50.922;5.430;2023-06-10T13:49:56;33.10;90.80
36002;DHT22;22070;50.922;5.430;2023-06-10T13:52:21;33.10;88.30
36002;DHT22;22070;50.922;5.430;2023-06-10T13:54:47;33.10;90.40
36002;DHT22;22070;50.922;5.430;2023-06-10T13:57:13;33.00;90.30
36002;DHT22;22070;50.922;5.430;2023-06-10T13:59:38;33.20;90.60
36002;DHT22;22070;50.922;5.430;2023-06-10T14:02:04;33.30;88.20
36002;DHT22;22070;50.922;5.430;2023-06-10T14:04:30;33.30;88.90
36002;DHT22;22070;50.922;5.430;2023-06-10T14:06:55;33.60;90.20
36002;DHT22;22070;50.922;5.430;2023-06-10T14:09:22;33.80;88.30
36002;DHT22;22070;50.922;5.430;2023-06-10T14:11:48;33.80;88.90
36002;DHT22;22070;50.922;5.430;2023-06-10T14:14:14;33.60;88.20
36002;DHT22;22070;50.922;5.430;2023-06-10T14:16:40;33.50;89.10
36002;DHT22;22070;50.922;5.430;2023-06-10T14:19:06;33.90;88.20
36002;DHT22;22070;50.922;5.430;2023-06-10T14:21:31;34.00;90.10
36002;DHT22;22070;50.922;5.430;2023-06-10T14:23:57;34.00;88.70
36002;DHT22;22070;50.922;5.430;2023-06-10T14:26:23;34.20;88.50
36002;DHT22;22070;50.922;5.430;2023-06-10T14:28:49;34.40;87.90
36002;DHT22;22070;50.922;5.430;2023-06-10T14:31:16;34.30;87.10
36002;DHT22;22070;50.922;5.430;2023-06-10T14:33:41;34.20;87.00
36002;DHT22;22070;50.922;5.430;2023-06-10T14:36:09;34.00;86.10
36002;DHT22;22070;50.922;5.430;2023-06-10T14:38:36;34.20;88.50
36002;DHT22;22070;50.922;5.430;2023-06-10T14:41:02;34.00;86.00
36002;DHT22;22070;50.922;5.430;2023-06-10T14:43:28;34.10;87.00
36002;DHT22;22070;50.922;5.430;2023-06-10T14:45:53;34.20;88.10
36002;DHT22;22070;50.922;5.430;2023-06-10T14:48:21;34.50;87.90
36002;DHT22;22070;50.922;5.430;2023-06-10T14:50:47;34.60;88.10
36002;DHT22;22070;50.922;5.430;2023-06-10T14:53:17;34.80;86.90
36002;DHT22;22070;50.922;5.430;2023-06-10T14:55:42;34.90;85.30
36002;DHT22;22070;50.922;5.430;2023-06-10T14:58:08;35.00;86.00
36002;DHT22;22070;50.922;5.430;2023-06-10T15:00:34;35.00;86.80
36002;DHT22;22070;50.922;5.430;2023-06-10T15:02:59;34.90;88.10
36002;DHT22;22070;50.922;5.430;2023-06-10T15:05:25;34.60;86.40
36002;DHT22;22070;50.922;5.430;2023-06-10T15:07:51;34.70;86.70
36002;DHT22;22070;50.922;5.430;2023-06-10T15:10:16;34.80;86.30
36002;DHT22;22070;50.922;5.430;2023-06-10T15:12:43;34.90;86.80
36002;DHT22;22070;50.922;5.430;2023-06-10T15:15:09;35.00;88.10
36002;DHT22;22070;50.922;5.430;2023-06-10T15:17:34;35.30;88.40
36002;DHT22;22070;50.922;5.430;2023-06-10T15:20:00;35.20;88.40
36002;DHT22;22070;50.922;5.430;2023-06-10T15:22:26;35.10;88.80
36002;DHT22;22070;50.922;5.430;2023-06-10T15:24:51;34.70;87.40
36002;DHT22;22070;50.922;5.430;2023-06-10T15:27:17;34.50;88.40
36002;DHT22;22070;50.922;5.430;2023-06-10T15:29:42;34.40;88.70
36002;DHT22;22070;50.922;5.430;2023-06-10T15:32:08;34.40;88.70
36002;DHT22;22070;50.922;5.430;2023-06-10T15:34:33;34.50;88.60
36002;DHT22;22070;50.922;5.430;2023-06-10T15:36:59;34.40;88.70
36002;DHT22;22070;50.922;5.430;2023-06-10T15:39:25;34.20;88.10
36002;DHT22;22070;50.922;5.430;2023-06-10T15:41:52;34.40;88.50
36002;DHT22;22070;50.922;5.430;2023-06-10T15:44:18;34.40;88.40
36002;DHT22;22070;50.922;5.430;2023-06-10T15:46:43;34.40;88.20
36002;DHT22;22070;50.922;5.430;2023-06-10T15:49:09;34.10;88.50
36002;DHT22;22070;50.922;5.430;2023-06-10T15:51:35;34.40;89.30
36002;DHT22;22070;50.922;5.430;2023-06-10T15:54:01;34.40;88.10
36002;DHT22;22070;50.922;5.430;2023-06-10T15:56:26;34.70;89.10